createdAt,value
2023-01-17T00:04:57.953Z,76.23
2023-01-17T00:10:02.275Z,75.68
2023-01-17T00:15:07.403Z,76.27
2023-01-17T00:20:14.188Z,75.92
2023-01-17T00:25:18.669Z,75.99
2023-01-17T00:30:22.474Z,76.17
2023-01-17T00:35:26.464Z,76.67
2023-01-17T00:40:28.616Z,77.12
2023-01-17T00:45:32.053Z,76.07
2023-01-17T00:50:36.432Z,76.54
2023-01-17T00:55:38.527Z,77.10
2023-01-17T01:00:42.259Z,76.18
2023-01-17T01:05:44.446Z,75.61
2023-01-17T01:10:48.435Z,75.32
2023-01-17T01:15:52.443Z,75.07
2023-01-17T01:20:54.585Z,74.88
2023-01-17T01:25:56.944Z,75.17
2023-01-17T01:31:01.361Z,74.98
2023-01-17T01:36:03.521Z,74.76
2023-01-17T01:41:06.452Z,75.66
2023-01-17T01:46:13.127Z,75.69
2023-01-17T01:51:19.757Z,75.67
2023-01-17T01:56:23.506Z,75.61
2023-01-17T02:01:27.435Z,75.61
2023-01-17T02:06:34.183Z,75.44
2023-01-17T02:11:37.923Z,75.01
2023-01-17T02:16:58.695Z,75.39
2023-01-17T02:22:23.220Z,75.71
2023-01-17T02:27:27.492Z,75.60
2023-01-17T02:32:45.509Z,75.75
2023-01-17T02:37:58.139Z,76.33
2023-01-17T02:43:07.886Z,78.00
2023-01-17T02:48:14.004Z,79.60
2023-01-17T02:53:30.363Z,81.37
2023-01-17T02:58:50.423Z,82.85
2023-01-17T03:03:58.953Z,83.89
2023-01-17T03:09:02.652Z,84.27
2023-01-17T03:14:04.819Z,84.48
2023-01-17T03:19:08.236Z,85.48
2023-01-17T03:24:11.758Z,86.03
2023-01-17T03:29:14.092Z,86.41
2023-01-17T03:34:17.561Z,87.05
2023-01-17T03:39:19.210Z,86.72
2023-01-17T03:44:21.339Z,86.31
2023-01-17T03:49:25.315Z,85.14
2023-01-17T03:54:27.463Z,84.94
2023-01-17T03:59:29.518Z,84.66
2023-01-17T04:04:33.468Z,84.41
2023-01-17T04:09:35.833Z,84.75
2023-01-17T04:14:37.940Z,85.03
2023-01-17T04:19:41.623Z,83.87
2023-01-17T04:24:43.518Z,83.30
2023-01-17T04:29:46.846Z,82.41
2023-01-17T04:34:50.240Z,82.80
2023-01-17T04:39:52.308Z,82.94
2023-01-17T04:44:54.440Z,82.80
2023-01-17T04:49:57.871Z,83.07
2023-01-17T04:55:00.030Z,83.81
2023-01-17T05:00:01.925Z,84.00
2023-01-17T05:05:09.183Z,83.98
2023-01-17T05:10:11.323Z,82.97
2023-01-17T05:15:13.503Z,82.68
2023-01-17T05:20:17.385Z,83.55
2023-01-17T05:25:19.228Z,83.14
2023-01-17T05:30:22.459Z,83.69
2023-01-17T05:35:28.163Z,83.66
2023-01-17T05:40:31.622Z,84.07
2023-01-17T05:45:33.990Z,84.44
2023-01-17T05:50:38.415Z,85.11
2023-01-17T05:55:41.474Z,85.10
2023-01-17T06:00:43.975Z,85.23
2023-01-17T06:05:48.556Z,85.35
2023-01-17T06:10:50.703Z,86.00
2023-01-17T06:15:52.873Z,85.79
2023-01-17T06:20:56.660Z,85.90
2023-01-17T06:26:02.744Z,85.12
2023-01-17T06:31:08.591Z,85.20
2023-01-17T06:36:12.161Z,85.47
2023-01-17T06:41:13.905Z,84.91
2023-01-17T06:46:15.736Z,84.89
2023-01-17T06:51:19.272Z,85.04
2023-01-17T06:56:21.473Z,84.90
2023-01-17T07:01:24.168Z,85.64
2023-01-17T07:06:27.331Z,85.63
2023-01-17T07:11:30.341Z,86.28
2023-01-17T07:16:34.326Z,87.27
2023-01-17T07:21:37.876Z,89.32
2023-01-17T07:26:40.077Z,90.93
2023-01-17T07:31:42.667Z,91.41
2023-01-17T07:36:46.264Z,91.09
2023-01-17T07:41:48.625Z,90.72
2023-01-17T07:46:51.219Z,89.26
2023-01-17T07:51:54.497Z,88.15
2023-01-17T07:56:56.294Z,86.24
2023-01-17T08:01:58.893Z,84.39
2023-01-17T08:07:02.669Z,84.41
2023-01-17T08:12:05.230Z,83.92
2023-01-17T08:17:07.602Z,83.19
2023-01-17T08:22:11.607Z,83.20
2023-01-17T08:27:14.074Z,82.54
2023-01-17T08:32:16.162Z,82.46
2023-01-17T08:37:19.776Z,82.20
2023-01-17T08:42:21.630Z,81.66
2023-01-17T08:47:23.599Z,80.72
2023-01-17T08:52:27.163Z,79.89
2023-01-17T08:57:29.395Z,79.35
2023-01-17T09:02:31.597Z,78.91
2023-01-17T09:07:34.995Z,78.90
2023-01-17T09:12:37.189Z,77.47
2023-01-17T09:17:39.115Z,78.51
2023-01-17T09:22:42.271Z,78.15
2023-01-17T09:27:45.783Z,78.46
2023-01-17T09:32:52.923Z,78.78
2023-01-17T09:37:57.350Z,81.01
2023-01-17T09:43:03.041Z,82.26
2023-01-17T09:48:10.442Z,80.86
2023-01-17T09:53:16.912Z,81.62
2023-01-17T09:58:23.274Z,81.15
2023-01-17T10:03:59.099Z,80.89
2023-01-17T10:09:32.985Z,81.39
2023-01-17T10:14:48.134Z,82.06
2023-01-17T10:20:03.325Z,81.86
2023-01-17T10:25:16.041Z,82.75
2023-01-17T10:30:23.200Z,83.12
2023-01-17T10:35:30.764Z,82.58
2023-01-17T10:40:41.676Z,83.34
2023-01-17T10:45:52.088Z,84.02
2023-01-17T10:51:01.971Z,84.64
2023-01-17T10:56:07.306Z,84.74
2023-01-17T11:01:18.340Z,85.72
2023-01-17T11:06:22.747Z,87.46
2023-01-17T11:11:29.434Z,88.38
2023-01-17T11:16:32.250Z,90.80
2023-01-17T11:21:36.477Z,90.77
2023-01-17T11:26:46.432Z,89.01
2023-01-17T11:31:48.503Z,89.72
2023-01-17T11:37:09.034Z,88.08
2023-01-17T11:42:32.849Z,80.67
2023-01-17T11:47:34.949Z,71.50
2023-01-17T11:52:37.385Z,76.19
2023-01-17T11:57:40.990Z,75.96
2023-01-17T12:03:10.697Z,75.79
2023-01-17T12:08:21.980Z,73.74
2023-01-17T12:13:39.873Z,74.02
2023-01-17T12:18:49.479Z,73.99
2023-01-17T12:24:39.358Z,75.99
2023-01-17T12:29:50.103Z,74.64
2023-01-17T12:35:00.016Z,75.91
2023-01-17T12:40:10.454Z,76.15
2023-01-17T12:45:18.602Z,75.11
2023-01-17T12:50:26.756Z,73.37
2023-01-17T12:55:36.296Z,74.25
2023-01-17T13:00:40.115Z,73.25
2023-01-17T13:05:45.576Z,71.63
2023-01-17T13:10:52.575Z,71.41
2023-01-17T13:15:59.828Z,73.32
2023-01-17T13:21:27.487Z,73.90
2023-01-17T13:26:43.786Z,75.54
2023-01-17T13:31:49.406Z,75.92
2023-01-17T13:37:11.443Z,76.15
2023-01-17T13:42:25.297Z,75.68
2023-01-17T13:47:41.365Z,73.79
2023-01-17T13:52:43.138Z,71.80
2023-01-17T13:57:45.555Z,69.78
2023-01-17T14:02:50.001Z,70.73
2023-01-17T14:07:57.522Z,70.06
2023-01-17T14:12:59.871Z,69.88
2023-01-17T14:18:05.276Z,69.41
2023-01-17T14:23:24.112Z,70.36
2023-01-17T14:28:31.150Z,70.86
2023-01-17T14:33:38.475Z,68.73
2023-01-17T14:38:42.886Z,68.65
2023-01-17T14:43:47.183Z,68.24
2023-01-17T14:48:51.421Z,68.15
2023-01-17T14:53:55.758Z,69.15
2023-01-17T14:59:06.038Z,69.43
2023-01-17T15:04:23.547Z,70.73
2023-01-17T15:09:28.943Z,71.95
2023-01-17T15:14:36.112Z,72.72
2023-01-17T15:19:44.497Z,74.32
2023-01-17T15:24:47.851Z,75.47
2023-01-17T15:29:50.182Z,75.88
2023-01-17T15:34:53.933Z,78.15
2023-01-17T15:40:07.399Z,77.77
2023-01-17T15:45:15.103Z,79.19
2023-01-17T15:50:30.686Z,80.93
2023-01-17T15:55:35.165Z,81.69
2023-01-17T16:00:38.980Z,83.01
2023-01-17T16:05:42.681Z,84.32
2023-01-17T16:10:45.709Z,85.44
2023-01-17T16:15:47.877Z,84.77
2023-01-17T16:20:56.792Z,86.79
2023-01-17T16:25:59.046Z,87.30
2023-01-17T16:31:01.094Z,88.00
2023-01-17T16:36:05.376Z,89.31
2023-01-17T16:41:07.175Z,89.99
2023-01-17T16:46:11.514Z,89.80
2023-01-17T16:51:14.865Z,90.33
2023-01-17T16:56:18.605Z,91.52
2023-01-17T17:01:20.875Z,91.86
2023-01-17T17:06:24.552Z,91.92
2023-01-17T17:11:26.707Z,92.59
2023-01-17T17:16:30.542Z,92.62
2023-01-17T17:21:35.485Z,92.52
2023-01-17T17:26:37.637Z,93.70
2023-01-17T17:31:41.578Z,93.79
2023-01-17T17:36:45.517Z,93.90
2023-01-17T17:41:47.727Z,95.36
2023-01-17T17:46:49.746Z,94.87
2023-01-17T17:51:53.619Z,95.51
2023-01-17T17:56:55.451Z,95.62
2023-01-17T18:01:57.729Z,95.31
2023-01-17T18:07:01.371Z,96.07
2023-01-17T18:12:04.413Z,96.22
2023-01-17T18:17:06.626Z,96.66
2023-01-17T18:22:10.019Z,97.45
2023-01-17T18:27:12.222Z,97.10
2023-01-17T18:32:14.066Z,97.98
2023-01-17T18:37:17.097Z,98.29
2023-01-17T18:42:20.035Z,97.92
2023-01-17T18:47:23.168Z,98.34
2023-01-17T18:52:26.287Z,98.69
2023-01-17T18:57:28.001Z,98.48
2023-01-17T19:02:30.171Z,98.45
2023-01-17T19:07:34.297Z,98.58
2023-01-17T19:12:36.022Z,98.85
2023-01-17T19:17:38.142Z,99.48
2023-01-17T19:22:41.696Z,98.67
2023-01-17T19:27:43.906Z,96.89
2023-01-17T19:32:46.576Z,97.40
2023-01-17T19:37:51.573Z,96.19
2023-01-17T19:42:53.960Z,94.83
2023-01-17T19:47:56.222Z,96.08
2023-01-17T19:52:59.500Z,95.03
2023-01-17T19:58:01.333Z,95.06
2023-01-17T20:03:03.224Z,94.29
2023-01-17T20:08:06.688Z,94.82
2023-01-17T20:13:09.348Z,94.42
2023-01-17T20:18:11.577Z,93.81
2023-01-17T20:23:15.004Z,95.08
2023-01-17T20:28:16.843Z,95.70
2023-01-17T20:33:18.967Z,95.20
2023-01-17T20:38:22.772Z,94.48
2023-01-17T20:43:24.638Z,95.00
2023-01-17T20:48:26.976Z,95.46
2023-01-17T20:53:30.438Z,95.03
2023-01-17T20:58:32.700Z,96.11
2023-01-17T21:03:37.404Z,96.56
2023-01-17T21:08:42.718Z,96.71
2023-01-17T21:13:45.160Z,97.56
2023-01-17T21:18:48.080Z,97.13
2023-01-17T21:23:53.062Z,97.55
2023-01-17T21:28:56.028Z,97.73
2023-01-17T21:34:00.413Z,97.67
2023-01-17T21:39:06.305Z,98.71
2023-01-17T21:44:13.121Z,97.50
2023-01-17T21:49:15.642Z,97.72
2023-01-17T21:54:18.739Z,97.97
2023-01-17T21:59:20.819Z,99.24
2023-01-17T22:04:22.976Z,98.60
2023-01-17T22:09:26.153Z,99.44
2023-01-17T22:14:28.202Z,98.55
2023-01-17T22:19:30.162Z,98.07
2023-01-17T22:24:33.638Z,98.42
2023-01-17T22:29:35.655Z,98.11
2023-01-17T22:34:37.736Z,98.31
2023-01-17T22:39:41.574Z,98.84
2023-01-17T22:44:43.877Z,98.08
2023-01-17T22:49:45.816Z,98.19
2023-01-17T22:54:49.403Z,98.63
2023-01-17T22:59:51.493Z,98.42
2023-01-17T23:04:53.609Z,98.50
2023-01-17T23:09:56.987Z,99.09
2023-01-17T23:14:59.087Z,99.47
2023-01-17T23:20:01.126Z,98.92
2023-01-17T23:25:07.592Z,98.48
2023-01-17T23:30:11.648Z,99.02
2023-01-17T23:35:13.960Z,99.08
2023-01-17T23:40:18.413Z,99.75
2023-01-17T23:45:20.486Z,99.01
2023-01-17T23:50:22.815Z,99.64
2023-01-17T23:55:26.048Z,100.00
